Smyrna Airport
KMQY : rendu visible

Aérodrome :











RETROUVEZ-NOUS SUR...

 
LOGIN :

S'inscrire | Disclaimer

   EN    FR    IT 

 









Légende :    VFR   VFR Marginal   IFR   IFR Intensif   IFR Très Intensif
Visi : 
Plafond : 
>= 8 km
>= 3000ft
5 à 8 km
1000 à 3000 ft
1500m à 5 km
500 à 1000 ft
800 à 1500m
200 à 500 ft
< 800m
< 200 ft
Symboles :   Orages  Brouillard  Fortes neiges  Fortes précipitations  Vent > 20 kt






- Altitude de l'aérodrome : 543 ft


KMQY - Smyrna

DERNIER METAR :
  • 121856Z 21007KT 10SM CLR 27/20 A2981 RMK AO2 SLP098 T02720200 PNO $

METARs EXPIRÉS :
  • 121756Z VRB04KT 10SM SCT080 24/20 A2983 RMK AO2 SLP102 6//// T02440200 10244 20183 58003 PNO $
  • 121656Z 16003KT 10SM FEW070 BKN110 21/19 A2985 RMK AO2 TSE10RAB1558E30 SLP110 TSE MOV SE T02060194 PNO $
  • 121616Z 26011G15KT 10SM -RA FEW070 BKN110 21/19 A2990 RMK AO2 LTG DSNT SW TSE10RAB1558 PRESRR TSE MOV SE PNO $

TAF KMQY
Valide du 12 à 18h jusqu'au 13 à 18h UTC


121720Z 1218/1318 19010KT P6SM SCT110
FM122200 23011G16KT P6SM VCTS SCT050CB
FM130000 33006KT P6SM SCT150
FM130900 00000KT 3SM BR SCT007 OVC015
FM131300 03004KT P6SM SCT250
FIR KZME / Amérique du Nord



MET'MAP, la Météo Aéronautique d'un coup d'oeil ! - Copyright ORBIFLY Décembre 2007 - Disclaimer

ORBIFLY MET'MAP TEAM :

Programmation & Développement : Alexandra Zaïnal
Sur une idée originale de : Baudouin d'Aumeries
Assistance à la programmation : Marc-Olivier Méhu
Soutien technique & logistique : Manuel Goepfert

Contact : metmap@orbifly.com




SOURCES & CREDITS :

   NOAA       Earth
Advisory